sensor_id;sensor_type;location;lat;lon;timestamp;temperature;humidity
56727;DHT22;42609;52.700;6.236;2022-08-19T00:01:13;18.60;99.90
56727;DHT22;42609;52.700;6.236;2022-08-19T00:03:39;18.60;99.90
56727;DHT22;42609;52.700;6.236;2022-08-19T00:06:05;18.50;99.90
56727;DHT22;42609;52.700;6.236;2022-08-19T00:08:30;18.50;99.90
56727;DHT22;42609;52.700;6.236;2022-08-19T00:10:56;18.50;99.90
56727;DHT22;42609;52.700;6.236;2022-08-19T00:13:23;18.50;99.90
56727;DHT22;42609;52.700;6.236;2022-08-19T00:15:48;18.50;99.90
56727;DHT22;42609;52.700;6.236;2022-08-19T00:18:14;18.40;99.90
56727;DHT22;42609;52.700;6.236;2022-08-19T00:20:39;18.40;99.90
56727;DHT22;42609;52.700;6.236;2022-08-19T00:23:06;18.40;99.90
56727;DHT22;42609;52.700;6.236;2022-08-19T00:25:32;18.40;99.90
56727;DHT22;42609;52.700;6.236;2022-08-19T00:27:58;18.40;99.90
56727;DHT22;42609;52.700;6.236;2022-08-19T00:30:25;18.30;99.90
56727;DHT22;42609;52.700;6.236;2022-08-19T00:32:53;18.30;99.90
56727;DHT22;42609;52.700;6.236;2022-08-19T00:35:21;18.30;99.90
56727;DHT22;42609;52.700;6.236;2022-08-19T00:37:48;18.20;99.90
56727;DHT22;42609;52.700;6.236;2022-08-19T00:40:15;18.20;99.90
56727;DHT22;42609;52.700;6.236;2022-08-19T00:42:41;18.20;99.90
56727;DHT22;42609;52.700;6.236;2022-08-19T00:45:27;18.20;99.90
56727;DHT22;42609;52.700;6.236;2022-08-19T00:47:55;18.10;99.90
56727;DHT22;42609;52.700;6.236;2022-08-19T00:50:21;18.10;99.90
56727;DHT22;42609;52.700;6.236;2022-08-19T00:52:50;18.10;99.90
56727;DHT22;42609;52.700;6.236;2022-08-19T00:55:20;18.00;99.90
56727;DHT22;42609;52.700;6.236;2022-08-19T00:57:53;18.10;99.90
56727;DHT22;42609;52.700;6.236;2022-08-19T01:00:21;18.00;99.90
56727;DHT22;42609;52.700;6.236;2022-08-19T01:02:47;18.00;99.90
56727;DHT22;42609;52.700;6.236;2022-08-19T01:05:16;18.00;99.90
56727;DHT22;42609;52.700;6.236;2022-08-19T01:07:44;17.90;99.90
56727;DHT22;42609;52.700;6.236;2022-08-19T01:10:14;17.90;99.90
56727;DHT22;42609;52.700;6.236;2022-08-19T01:12:41;17.90;99.90
56727;DHT22;42609;52.700;6.236;2022-08-19T01:15:09;17.90;99.90
56727;DHT22;42609;52.700;6.236;2022-08-19T01:17:38;17.90;99.90
56727;DHT22;42609;52.700;6.236;2022-08-19T01:20:06;17.90;99.90
56727;DHT22;42609;52.700;6.236;2022-08-19T01:22:36;17.80;99.90
56727;DHT22;42609;52.700;6.236;2022-08-19T01:25:03;17.80;99.90
56727;DHT22;42609;52.700;6.236;2022-08-19T01:27:38;17.80;99.90
56727;DHT22;42609;52.700;6.236;2022-08-19T01:30:04;17.80;99.90
56727;DHT22;42609;52.700;6.236;2022-08-19T01:32:31;17.70;99.90
56727;DHT22;42609;52.700;6.236;2022-08-19T01:34:57;17.70;99.90
56727;DHT22;42609;52.700;6.236;2022-08-19T01:37:23;17.70;99.90
56727;DHT22;42609;52.700;6.236;2022-08-19T01:39:49;17.70;99.90
56727;DHT22;42609;52.700;6.236;2022-08-19T01:42:15;17.70;99.90
56727;DHT22;42609;52.700;6.236;2022-08-19T01:44:41;17.60;99.90
56727;DHT22;42609;52.700;6.236;2022-08-19T01:47:07;17.60;99.90
56727;DHT22;42609;52.700;6.236;2022-08-19T01:49:34;17.60;99.90
56727;DHT22;42609;52.700;6.236;2022-08-19T01:52:01;17.50;99.90
56727;DHT22;42609;52.700;6.236;2022-08-19T01:54:27;17.50;99.90
56727;DHT22;42609;52.700;6.236;2022-08-19T01:56:57;17.50;99.90
56727;DHT22;42609;52.700;6.236;2022-08-19T01:59:24;17.50;99.90
56727;DHT22;42609;52.700;6.236;2022-08-19T02:01:50;17.40;99.90
56727;DHT22;42609;52.700;6.236;2022-08-19T02:04:15;17.40;99.90
56727;DHT22;42609;52.700;6.236;2022-08-19T02:06:41;17.40;99.90
56727;DHT22;42609;52.700;6.236;2022-08-19T02:09:07;17.40;99.90
56727;DHT22;42609;52.700;6.236;2022-08-19T02:11:35;17.40;99.90
56727;DHT22;42609;52.700;6.236;2022-08-19T02:14:03;17.30;99.90
56727;DHT22;42609;52.700;6.236;2022-08-19T02:16:29;17.40;99.90
56727;DHT22;42609;52.700;6.236;2022-08-19T02:18:56;17.30;99.90
56727;DHT22;42609;52.700;6.236;2022-08-19T02:21:22;17.30;99.90
56727;DHT22;42609;52.700;6.236;2022-08-19T02:23:49;17.30;99.90
56727;DHT22;42609;52.700;6.236;2022-08-19T02:26:15;17.30;99.90
56727;DHT22;42609;52.700;6.236;2022-08-19T02:28:41;17.20;99.90
56727;DHT22;42609;52.700;6.236;2022-08-19T02:31:12;17.20;99.90
56727;DHT22;42609;52.700;6.236;2022-08-19T02:33:38;17.20;99.90
56727;DHT22;42609;52.700;6.236;2022-08-19T02:36:05;17.20;99.90
56727;DHT22;42609;52.700;6.236;2022-08-19T02:38:32;17.20;99.90
56727;DHT22;42609;52.700;6.236;2022-08-19T02:41:04;17.10;99.90
56727;DHT22;42609;52.700;6.236;2022-08-19T02:43:30;17.10;99.90
56727;DHT22;42609;52.700;6.236;2022-08-19T02:45:57;17.10;99.90
56727;DHT22;42609;52.700;6.236;2022-08-19T02:48:24;17.10;99.90
56727;DHT22;42609;52.700;6.236;2022-08-19T02:50:52;17.00;99.90
56727;DHT22;42609;52.700;6.236;2022-08-19T02:53:26;17.00;99.90
56727;DHT22;42609;52.700;6.236;2022-08-19T02:55:51;17.00;99.90
56727;DHT22;42609;52.700;6.236;2022-08-19T02:58:18;17.00;99.90
56727;DHT22;42609;52.700;6.236;2022-08-19T03:00:47;17.00;99.90
56727;DHT22;42609;52.700;6.236;2022-08-19T03:03:13;16.90;99.90
56727;DHT22;42609;52.700;6.236;2022-08-19T03:05:39;17.00;99.90
56727;DHT22;42609;52.700;6.236;2022-08-19T03:08:05;16.90;99.90
56727;DHT22;42609;52.700;6.236;2022-08-19T03:10:32;16.90;99.90
56727;DHT22;42609;52.700;6.236;2022-08-19T03:12:57;16.90;99.90
56727;DHT22;42609;52.700;6.236;2022-08-19T03:15:23;16.90;99.90
56727;DHT22;42609;52.700;6.236;2022-08-19T03:17:49;16.80;99.90
56727;DHT22;42609;52.700;6.236;2022-08-19T03:20:14;16.80;99.90
56727;DHT22;42609;52.700;6.236;2022-08-19T03:22:40;16.80;99.90
56727;DHT22;42609;52.700;6.236;2022-08-19T03:25:05;16.80;99.90
56727;DHT22;42609;52.700;6.236;2022-08-19T03:27:31;16.80;99.90
56727;DHT22;42609;52.700;6.236;2022-08-19T03:29:57;16.80;99.90
56727;DHT22;42609;52.700;6.236;2022-08-19T03:32:22;16.70;99.90
56727;DHT22;42609;52.700;6.236;2022-08-19T03:34:48;16.70;99.90
56727;DHT22;42609;52.700;6.236;2022-08-19T03:37:14;16.70;99.90
56727;DHT22;42609;52.700;6.236;2022-08-19T03:39:40;16.70;99.90
56727;DHT22;42609;52.700;6.236;2022-08-19T03:42:07;16.70;99.90
56727;DHT22;42609;52.700;6.236;2022-08-19T03:44:33;16.70;99.90
56727;DHT22;42609;52.700;6.236;2022-08-19T03:46:59;16.70;99.90
56727;DHT22;42609;52.700;6.236;2022-08-19T03:49:28;16.60;99.90
56727;DHT22;42609;52.700;6.236;2022-08-19T03:51:55;16.60;99.90
56727;DHT22;42609;52.700;6.236;2022-08-19T03:54:24;16.60;99.90
56727;DHT22;42609;52.700;6.236;2022-08-19T03:56:51;16.60;99.90
56727;DHT22;42609;52.700;6.236;2022-08-19T03:59:24;16.60;99.90
56727;DHT22;42609;52.700;6.236;2022-08-19T04:01:52;16.60;99.90
56727;DHT22;42609;52.700;6.236;2022-08-19T04:04:18;16.60;99.90
56727;DHT22;42609;52.700;6.236;2022-08-19T04:06:44;16.50;99.90
56727;DHT22;42609;52.700;6.236;2022-08-19T04:09:10;16.50;99.90
56727;DHT22;42609;52.700;6.236;2022-08-19T04:11:49;16.50;99.90
56727;DHT22;42609;52.700;6.236;2022-08-19T04:14:20;16.40;99.90
56727;DHT22;42609;52.700;6.236;2022-08-19T04:16:47;16.50;99.90
56727;DHT22;42609;52.700;6.236;2022-08-19T04:19:14;16.40;99.90
56727;DHT22;42609;52.700;6.236;2022-08-19T04:21:43;16.40;99.90
56727;DHT22;42609;52.700;6.236;2022-08-19T04:24:09;16.50;99.90
56727;DHT22;42609;52.700;6.236;2022-08-19T04:26:36;16.40;99.90
56727;DHT22;42609;52.700;6.236;2022-08-19T04:29:08;16.40;99.90
56727;DHT22;42609;52.700;6.236;2022-08-19T04:31:34;16.40;99.90
56727;DHT22;42609;52.700;6.236;2022-08-19T04:34:02;16.40;99.90
56727;DHT22;42609;52.700;6.236;2022-08-19T04:36:34;16.40;99.90
56727;DHT22;42609;52.700;6.236;2022-08-19T04:39:05;16.40;99.90
56727;DHT22;42609;52.700;6.236;2022-08-19T04:41:32;16.40;99.90
56727;DHT22;42609;52.700;6.236;2022-08-19T04:44:16;16.40;99.90
56727;DHT22;42609;52.700;6.236;2022-08-19T04:46:46;16.30;99.90
56727;DHT22;42609;52.700;6.236;2022-08-19T04:49:13;16.30;99.90
56727;DHT22;42609;52.700;6.236;2022-08-19T04:51:40;16.40;99.90
56727;DHT22;42609;52.700;6.236;2022-08-19T04:54:07;16.40;99.90
56727;DHT22;42609;52.700;6.236;2022-08-19T04:56:33;16.40;99.90
56727;DHT22;42609;52.700;6.236;2022-08-19T04:58:59;16.40;99.90
56727;DHT22;42609;52.700;6.236;2022-08-19T05:01:29;16.30;99.90
56727;DHT22;42609;52.700;6.236;2022-08-19T05:03:57;16.30;99.90
56727;DHT22;42609;52.700;6.236;2022-08-19T05:06:23;16.40;99.90
56727;DHT22;42609;52.700;6.236;2022-08-19T05:08:49;16.40;99.90
56727;DHT22;42609;52.700;6.236;2022-08-19T05:11:26;16.40;99.90
56727;DHT22;42609;52.700;6.236;2022-08-19T05:13:53;16.50;99.90
56727;DHT22;42609;52.700;6.236;2022-08-19T05:16:21;16.50;99.90
56727;DHT22;42609;52.700;6.236;2022-08-19T05:18:47;16.50;99.90
56727;DHT22;42609;52.700;6.236;2022-08-19T05:21:32;16.60;99.90
56727;DHT22;42609;52.700;6.236;2022-08-19T05:24:17;16.70;99.90
56727;DHT22;42609;52.700;6.236;2022-08-19T05:26:45;16.80;99.90
56727;DHT22;42609;52.700;6.236;2022-08-19T05:29:13;17.00;99.90
56727;DHT22;42609;52.700;6.236;2022-08-19T05:31:39;17.10;99.90
56727;DHT22;42609;52.700;6.236;2022-08-19T05:34:06;17.20;99.90
56727;DHT22;42609;52.700;6.236;2022-08-19T05:36:51;17.20;99.90
56727;DHT22;42609;52.700;6.236;2022-08-19T05:39:25;17.40;99.90
56727;DHT22;42609;52.700;6.236;2022-08-19T05:41:57;17.40;99.90
56727;DHT22;42609;52.700;6.236;2022-08-19T05:44:25;17.50;99.90
56727;DHT22;42609;52.700;6.236;2022-08-19T05:46:51;17.60;99.90
56727;DHT22;42609;52.700;6.236;2022-08-19T05:49:21;17.70;99.90
56727;DHT22;42609;52.700;6.236;2022-08-19T05:51:48;17.80;99.90
56727;DHT22;42609;52.700;6.236;2022-08-19T05:54:13;17.90;99.90
56727;DHT22;42609;52.700;6.236;2022-08-19T05:56:40;17.90;99.90
56727;DHT22;42609;52.700;6.236;2022-08-19T05:59:08;18.00;99.90
56727;DHT22;42609;52.700;6.236;2022-08-19T06:01:40;18.00;99.90
56727;DHT22;42609;52.700;6.236;2022-08-19T06:04:06;18.10;99.90
56727;DHT22;42609;52.700;6.236;2022-08-19T06:06:32;18.20;99.90
56727;DHT22;42609;52.700;6.236;2022-08-19T06:09:00;18.30;99.90
56727;DHT22;42609;52.700;6.236;2022-08-19T06:11:41;18.40;99.90
56727;DHT22;42609;52.700;6.236;2022-08-19T06:14:11;18.50;99.90
56727;DHT22;42609;52.700;6.236;2022-08-19T06:16:39;18.60;99.90
56727;DHT22;42609;52.700;6.236;2022-08-19T06:19:10;18.70;99.90
56727;DHT22;42609;52.700;6.236;2022-08-19T06:21:38;18.70;99.90
56727;DHT22;42609;52.700;6.236;2022-08-19T06:24:07;18.70;99.90
56727;DHT22;42609;52.700;6.236;2022-08-19T06:26:37;18.80;99.90
56727;DHT22;42609;52.700;6.236;2022-08-19T06:29:04;18.90;99.90
56727;DHT22;42609;52.700;6.236;2022-08-19T06:31:33;19.00;99.90
56727;DHT22;42609;52.700;6.236;2022-08-19T06:34:03;19.00;99.90
56727;DHT22;42609;52.700;6.236;2022-08-19T06:36:36;19.10;99.90
56727;DHT22;42609;52.700;6.236;2022-08-19T06:39:05;19.20;99.90
56727;DHT22;42609;52.700;6.236;2022-08-19T06:41:34;19.30;99.90
56727;DHT22;42609;52.700;6.236;2022-08-19T06:44:00;19.40;99.90
56727;DHT22;42609;52.700;6.236;2022-08-19T06:46:27;19.50;99.90
56727;DHT22;42609;52.700;6.236;2022-08-19T06:48:53;19.60;99.90
56727;DHT22;42609;52.700;6.236;2022-08-19T06:51:20;19.70;99.90
56727;DHT22;42609;52.700;6.236;2022-08-19T06:53:48;19.70;99.90
56727;DHT22;42609;52.700;6.236;2022-08-19T06:56:16;19.90;99.90
56727;DHT22;42609;52.700;6.236;2022-08-19T06:58:42;20.00;99.90
56727;DHT22;42609;52.700;6.236;2022-08-19T07:01:08;20.10;99.90
56727;DHT22;42609;52.700;6.236;2022-08-19T07:03:35;20.20;99.90
56727;DHT22;42609;52.700;6.236;2022-08-19T07:06:11;20.30;99.90
56727;DHT22;42609;52.700;6.236;2022-08-19T07:08:38;20.40;99.90
56727;DHT22;42609;52.700;6.236;2022-08-19T07:11:13;20.50;99.90
56727;DHT22;42609;52.700;6.236;2022-08-19T07:13:39;20.60;99.90
56727;DHT22;42609;52.700;6.236;2022-08-19T07:16:11;20.60;99.90
56727;DHT22;42609;52.700;6.236;2022-08-19T07:18:37;20.70;99.90
56727;DHT22;42609;52.700;6.236;2022-08-19T07:21:07;20.80;99.90
56727;DHT22;42609;52.700;6.236;2022-08-19T07:23:33;20.90;99.90
56727;DHT22;42609;52.700;6.236;2022-08-19T07:26:10;21.00;99.90
56727;DHT22;42609;52.700;6.236;2022-08-19T07:28:36;21.10;99.90
56727;DHT22;42609;52.700;6.236;2022-08-19T07:31:07;21.20;99.90
56727;DHT22;42609;52.700;6.236;2022-08-19T07:33:33;21.30;99.90
56727;DHT22;42609;52.700;6.236;2022-08-19T07:36:05;21.40;99.90
56727;DHT22;42609;52.700;6.236;2022-08-19T07:38:31;21.50;99.90
56727;DHT22;42609;52.700;6.236;2022-08-19T07:40:57;21.60;99.90
56727;DHT22;42609;52.700;6.236;2022-08-19T07:43:23;21.70;99.90
56727;DHT22;42609;52.700;6.236;2022-08-19T07:45:51;21.80;99.90
56727;DHT22;42609;52.700;6.236;2022-08-19T07:48:17;21.90;99.90
56727;DHT22;42609;52.700;6.236;2022-08-19T07:50:42;21.90;99.90
56727;DHT22;42609;52.700;6.236;2022-08-19T07:53:08;21.90;99.90
56727;DHT22;42609;52.700;6.236;2022-08-19T07:55:33;22.00;99.90
56727;DHT22;42609;52.700;6.236;2022-08-19T07:57:59;22.10;99.90
56727;DHT22;42609;52.700;6.236;2022-08-19T08:00:25;22.20;99.90
56727;DHT22;42609;52.700;6.236;2022-08-19T08:02:52;22.30;99.90
56727;DHT22;42609;52.700;6.236;2022-08-19T08:05:17;22.50;99.90
56727;DHT22;42609;52.700;6.236;2022-08-19T08:08:02;22.50;99.90
56727;DHT22;42609;52.700;6.236;2022-08-19T08:10:46;22.60;99.90
56727;DHT22;42609;52.700;6.236;2022-08-19T08:13:12;22.70;99.90
56727;DHT22;42609;52.700;6.236;2022-08-19T08:15:38;22.70;99.90
56727;DHT22;42609;52.700;6.236;2022-08-19T08:18:04;22.70;99.90
56727;DHT22;42609;52.700;6.236;2022-08-19T08:20:31;22.90;99.90
56727;DHT22;42609;52.700;6.236;2022-08-19T08:22:57;22.90;99.90
56727;DHT22;42609;52.700;6.236;2022-08-19T08:25:41;23.10;99.90
56727;DHT22;42609;52.700;6.236;2022-08-19T08:28:06;23.10;99.90
56727;DHT22;42609;52.700;6.236;2022-08-19T08:30:34;23.20;99.90
56727;DHT22;42609;52.700;6.236;2022-08-19T08:33:01;23.30;99.90
56727;DHT22;42609;52.700;6.236;2022-08-19T08:35:26;23.40;99.90
56727;DHT22;42609;52.700;6.236;2022-08-19T08:37:54;23.50;99.90
56727;DHT22;42609;52.700;6.236;2022-08-19T08:40:38;23.50;99.90
56727;DHT22;42609;52.700;6.236;2022-08-19T08:43:27;23.50;99.90
56727;DHT22;42609;52.700;6.236;2022-08-19T08:45:59;23.60;99.90
56727;DHT22;42609;52.700;6.236;2022-08-19T08:48:31;23.70;99.90
56727;DHT22;42609;52.700;6.236;2022-08-19T08:51:01;23.70;99.90
56727;DHT22;42609;52.700;6.236;2022-08-19T08:53:28;23.80;99.90
56727;DHT22;42609;52.700;6.236;2022-08-19T08:55:56;23.80;99.90
56727;DHT22;42609;52.700;6.236;2022-08-19T08:58:31;23.90;99.90
56727;DHT22;42609;52.700;6.236;2022-08-19T09:00:59;23.90;99.90
56727;DHT22;42609;52.700;6.236;2022-08-19T09:03:26;24.10;99.90
56727;DHT22;42609;52.700;6.236;2022-08-19T09:06:06;24.10;99.90
56727;DHT22;42609;52.700;6.236;2022-08-19T09:09:18;24.20;99.90
56727;DHT22;42609;52.700;6.236;2022-08-19T09:17:14;24.30;99.90
56727;DHT22;42609;52.700;6.236;2022-08-19T09:22:15;24.60;99.90
56727;DHT22;42609;52.700;6.236;2022-08-19T09:24:41;24.70;99.90
56727;DHT22;42609;52.700;6.236;2022-08-19T09:27:06;24.80;99.90
56727;DHT22;42609;52.700;6.236;2022-08-19T09:29:32;24.80;99.90
56727;DHT22;42609;52.700;6.236;2022-08-19T09:31:57;24.90;99.90
56727;DHT22;42609;52.700;6.236;2022-08-19T09:34:23;25.00;99.90
56727;DHT22;42609;52.700;6.236;2022-08-19T09:36:49;25.10;99.90
56727;DHT22;42609;52.700;6.236;2022-08-19T09:39:18;25.00;99.90
56727;DHT22;42609;52.700;6.236;2022-08-19T09:41:44;25.00;99.90
56727;DHT22;42609;52.700;6.236;2022-08-19T09:44:10;25.00;99.90
56727;DHT22;42609;52.700;6.236;2022-08-19T09:46:37;25.10;99.90
56727;DHT22;42609;52.700;6.236;2022-08-19T09:49:02;25.10;99.90
56727;DHT22;42609;52.700;6.236;2022-08-19T09:51:30;25.10;99.90
56727;DHT22;42609;52.700;6.236;2022-08-19T09:54:00;25.10;99.90
56727;DHT22;42609;52.700;6.236;2022-08-19T09:56:27;25.20;99.90
56727;DHT22;42609;52.700;6.236;2022-08-19T09:58:53;25.10;99.90
56727;DHT22;42609;52.700;6.236;2022-08-19T10:01:21;25.00;99.90
56727;DHT22;42609;52.700;6.236;2022-08-19T10:03:53;24.90;99.90
56727;DHT22;42609;52.700;6.236;2022-08-19T10:06:21;24.80;99.90
56727;DHT22;42609;52.700;6.236;2022-08-19T10:08:47;24.80;99.90
56727;DHT22;42609;52.700;6.236;2022-08-19T10:11:13;24.80;99.90
56727;DHT22;42609;52.700;6.236;2022-08-19T10:13:41;24.90;99.90
56727;DHT22;42609;52.700;6.236;2022-08-19T10:16:10;24.80;99.90
56727;DHT22;42609;52.700;6.236;2022-08-19T10:18:36;24.80;99.90
56727;DHT22;42609;52.700;6.236;2022-08-19T10:21:14;24.70;99.90
56727;DHT22;42609;52.700;6.236;2022-08-19T10:23:43;24.60;99.90
56727;DHT22;42609;52.700;6.236;2022-08-19T10:26:12;24.50;99.90
56727;DHT22;42609;52.700;6.236;2022-08-19T10:28:38;24.70;99.90
56727;DHT22;42609;52.700;6.236;2022-08-19T10:31:09;24.80;99.90
56727;DHT22;42609;52.700;6.236;2022-08-19T10:33:36;24.90;99.90
56727;DHT22;42609;52.700;6.236;2022-08-19T10:36:05;25.00;99.90
56727;DHT22;42609;52.700;6.236;2022-08-19T10:38:31;25.10;99.90
56727;DHT22;42609;52.700;6.236;2022-08-19T10:40:57;25.10;99.90
56727;DHT22;42609;52.700;6.236;2022-08-19T10:43:23;25.30;99.90
56727;DHT22;42609;52.700;6.236;2022-08-19T10:45:54;25.40;99.90
56727;DHT22;42609;52.700;6.236;2022-08-19T10:48:24;25.60;99.90
56727;DHT22;42609;52.700;6.236;2022-08-19T10:50:50;25.60;99.90
56727;DHT22;42609;52.700;6.236;2022-08-19T10:53:34;25.70;99.90
56727;DHT22;42609;52.700;6.236;2022-08-19T10:56:02;25.70;99.90
56727;DHT22;42609;52.700;6.236;2022-08-19T10:58:46;25.80;99.90
56727;DHT22;42609;52.700;6.236;2022-08-19T11:01:14;25.90;99.90
56727;DHT22;42609;52.700;6.236;2022-08-19T11:03:40;26.10;99.90
56727;DHT22;42609;52.700;6.236;2022-08-19T11:06:07;26.00;99.90
56727;DHT22;42609;52.700;6.236;2022-08-19T11:08:33;26.00;99.90
56727;DHT22;42609;52.700;6.236;2022-08-19T11:11:01;26.10;99.90
56727;DHT22;42609;52.700;6.236;2022-08-19T11:13:29;26.20;99.90
56727;DHT22;42609;52.700;6.236;2022-08-19T11:16:00;26.30;99.90
56727;DHT22;42609;52.700;6.236;2022-08-19T11:18:26;26.30;99.90
56727;DHT22;42609;52.700;6.236;2022-08-19T11:20:52;26.30;99.90
56727;DHT22;42609;52.700;6.236;2022-08-19T11:23:18;26.30;99.90
56727;DHT22;42609;52.700;6.236;2022-08-19T11:25:44;26.30;99.90
56727;DHT22;42609;52.700;6.236;2022-08-19T11:28:11;26.40;99.90
56727;DHT22;42609;52.700;6.236;2022-08-19T11:30:37;26.40;99.90
56727;DHT22;42609;52.700;6.236;2022-08-19T11:33:03;26.50;99.50
56727;DHT22;42609;52.700;6.236;2022-08-19T11:35:29;26.50;99.20
56727;DHT22;42609;52.700;6.236;2022-08-19T11:37:54;26.40;99.30
56727;DHT22;42609;52.700;6.236;2022-08-19T11:40:21;26.40;99.10
56727;DHT22;42609;52.700;6.236;2022-08-19T11:42:46;26.40;99.10
56727;DHT22;42609;52.700;6.236;2022-08-19T11:45:26;26.30;99.20
56727;DHT22;42609;52.700;6.236;2022-08-19T11:47:53;26.40;99.20
56727;DHT22;42609;52.700;6.236;2022-08-19T11:50:19;26.40;98.90
56727;DHT22;42609;52.700;6.236;2022-08-19T11:52:45;26.50;99.20
56727;DHT22;42609;52.700;6.236;2022-08-19T11:55:13;26.50;99.20
56727;DHT22;42609;52.700;6.236;2022-08-19T11:57:39;26.60;98.90
56727;DHT22;42609;52.700;6.236;2022-08-19T12:00:07;26.60;98.60
56727;DHT22;42609;52.700;6.236;2022-08-19T12:02:33;26.60;98.90
56727;DHT22;42609;52.700;6.236;2022-08-19T12:04:58;26.60;98.40
56727;DHT22;42609;52.700;6.236;2022-08-19T12:07:28;26.70;97.90
56727;DHT22;42609;52.700;6.236;2022-08-19T12:09:55;26.80;98.20
56727;DHT22;42609;52.700;6.236;2022-08-19T12:12:22;26.90;98.10
56727;DHT22;42609;52.700;6.236;2022-08-19T12:14:48;26.90;98.20
56727;DHT22;42609;52.700;6.236;2022-08-19T12:17:16;26.90;98.20
56727;DHT22;42609;52.700;6.236;2022-08-19T12:19:41;26.80;98.20
56727;DHT22;42609;52.700;6.236;2022-08-19T12:22:07;26.90;98.20
56727;DHT22;42609;52.700;6.236;2022-08-19T12:24:33;27.00;97.50
56727;DHT22;42609;52.700;6.236;2022-08-19T12:26:59;27.10;97.40
56727;DHT22;42609;52.700;6.236;2022-08-19T12:29:27;27.20;97.40
56727;DHT22;42609;52.700;6.236;2022-08-19T12:31:55;27.30;97.10
56727;DHT22;42609;52.700;6.236;2022-08-19T12:34:27;27.30;96.50
56727;DHT22;42609;52.700;6.236;2022-08-19T12:36:56;27.40;96.70
56727;DHT22;42609;52.700;6.236;2022-08-19T12:39:22;27.30;96.70
56727;DHT22;42609;52.700;6.236;2022-08-19T12:41:48;27.40;97.00
56727;DHT22;42609;52.700;6.236;2022-08-19T12:44:14;27.50;97.40
56727;DHT22;42609;52.700;6.236;2022-08-19T12:46:40;27.50;96.40
56727;DHT22;42609;52.700;6.236;2022-08-19T12:49:05;27.60;96.10
56727;DHT22;42609;52.700;6.236;2022-08-19T12:51:31;27.60;95.80
56727;DHT22;42609;52.700;6.236;2022-08-19T12:53:57;27.60;95.90
56727;DHT22;42609;52.700;6.236;2022-08-19T12:56:22;27.60;96.00
56727;DHT22;42609;52.700;6.236;2022-08-19T12:58:48;27.70;95.90
56727;DHT22;42609;52.700;6.236;2022-08-19T13:01:16;27.60;95.60
56727;DHT22;42609;52.700;6.236;2022-08-19T13:03:44;27.60;95.00
56727;DHT22;42609;52.700;6.236;2022-08-19T13:06:10;27.60;95.40
56727;DHT22;42609;52.700;6.236;2022-08-19T13:08:36;27.60;95.20
56727;DHT22;42609;52.700;6.236;2022-08-19T13:11:20;27.60;95.00
56727;DHT22;42609;52.700;6.236;2022-08-19T13:13:50;27.70;94.60
56727;DHT22;42609;52.700;6.236;2022-08-19T13:16:17;27.60;95.40
56727;DHT22;42609;52.700;6.236;2022-08-19T13:18:45;27.60;95.50
56727;DHT22;42609;52.700;6.236;2022-08-19T13:21:16;27.50;95.70
56727;DHT22;42609;52.700;6.236;2022-08-19T13:23:42;27.30;95.80
56727;DHT22;42609;52.700;6.236;2022-08-19T13:26:09;27.40;96.00
56727;DHT22;42609;52.700;6.236;2022-08-19T13:28:35;27.50;96.20
56727;DHT22;42609;52.700;6.236;2022-08-19T13:31:21;27.70;95.70
56727;DHT22;42609;52.700;6.236;2022-08-19T13:34:06;27.90;95.50
56727;DHT22;42609;52.700;6.236;2022-08-19T13:36:36;28.00;95.50
56727;DHT22;42609;52.700;6.236;2022-08-19T13:39:03;28.10;95.10
56727;DHT22;42609;52.700;6.236;2022-08-19T13:41:29;28.10;94.90
56727;DHT22;42609;52.700;6.236;2022-08-19T13:43:56;28.00;94.80
56727;DHT22;42609;52.700;6.236;2022-08-19T13:46:21;27.90;95.10
56727;DHT22;42609;52.700;6.236;2022-08-19T13:48:47;27.70;95.60
56727;DHT22;42609;52.700;6.236;2022-08-19T13:51:15;27.40;96.20
56727;DHT22;42609;52.700;6.236;2022-08-19T13:53:43;27.30;96.50
56727;DHT22;42609;52.700;6.236;2022-08-19T13:56:10;27.30;96.60
56727;DHT22;42609;52.700;6.236;2022-08-19T13:58:37;27.30;96.80
56727;DHT22;42609;52.700;6.236;2022-08-19T14:01:04;27.40;96.50
56727;DHT22;42609;52.700;6.236;2022-08-19T14:03:31;27.50;96.60
56727;DHT22;42609;52.700;6.236;2022-08-19T14:05:56;27.40;96.50
56727;DHT22;42609;52.700;6.236;2022-08-19T14:08:22;27.30;96.40
56727;DHT22;42609;52.700;6.236;2022-08-19T14:10:48;27.30;96.50
56727;DHT22;42609;52.700;6.236;2022-08-19T14:13:17;27.00;96.30
56727;DHT22;42609;52.700;6.236;2022-08-19T14:15:42;26.90;96.50
56727;DHT22;42609;52.700;6.236;2022-08-19T14:18:08;26.80;96.60
56727;DHT22;42609;52.700;6.236;2022-08-19T14:20:35;26.80;96.60
56727;DHT22;42609;52.700;6.236;2022-08-19T14:23:01;26.80;96.60
56727;DHT22;42609;52.700;6.236;2022-08-19T14:25:28;26.80;96.70
56727;DHT22;42609;52.700;6.236;2022-08-19T14:27:55;26.90;96.80
56727;DHT22;42609;52.700;6.236;2022-08-19T14:30:27;26.70;97.00
56727;DHT22;42609;52.700;6.236;2022-08-19T14:32:54;26.70;97.30
56727;DHT22;42609;52.700;6.236;2022-08-19T14:35:21;26.60;97.50
56727;DHT22;42609;52.700;6.236;2022-08-19T14:37:48;26.60;97.70
56727;DHT22;42609;52.700;6.236;2022-08-19T14:40:18;26.60;98.00
56727;DHT22;42609;52.700;6.236;2022-08-19T14:42:52;26.60;98.10
56727;DHT22;42609;52.700;6.236;2022-08-19T14:45:17;26.40;98.20
56727;DHT22;42609;52.700;6.236;2022-08-19T14:47:43;26.40;98.50
56727;DHT22;42609;52.700;6.236;2022-08-19T14:50:10;26.40;98.50
56727;DHT22;42609;52.700;6.236;2022-08-19T14:52:35;26.30;98.40
56727;DHT22;42609;52.700;6.236;2022-08-19T14:55:02;26.30;98.70
56727;DHT22;42609;52.700;6.236;2022-08-19T14:57:27;26.20;98.70
56727;DHT22;42609;52.700;6.236;2022-08-19T14:59:53;26.30;98.80
56727;DHT22;42609;52.700;6.236;2022-08-19T15:02:18;26.30;98.90
56727;DHT22;42609;52.700;6.236;2022-08-19T15:04:46;26.30;98.80
56727;DHT22;42609;52.700;6.236;2022-08-19T15:07:12;26.40;98.60
56727;DHT22;42609;52.700;6.236;2022-08-19T15:09:37;26.40;98.50
56727;DHT22;42609;52.700;6.236;2022-08-19T15:12:03;26.40;98.40
56727;DHT22;42609;52.700;6.236;2022-08-19T15:14:30;26.30;98.40
56727;DHT22;42609;52.700;6.236;2022-08-19T15:17:00;26.20;98.70
56727;DHT22;42609;52.700;6.236;2022-08-19T15:19:26;26.20;99.10
56727;DHT22;42609;52.700;6.236;2022-08-19T15:21:51;26.10;99.20
56727;DHT22;42609;52.700;6.236;2022-08-19T15:24:20;26.10;98.90
56727;DHT22;42609;52.700;6.236;2022-08-19T15:26:45;26.20;98.90
56727;DHT22;42609;52.700;6.236;2022-08-19T15:29:11;26.20;98.80
56727;DHT22;42609;52.700;6.236;2022-08-19T15:31:42;26.10;98.60
56727;DHT22;42609;52.700;6.236;2022-08-19T15:34:08;26.10;98.20
56727;DHT22;42609;52.700;6.236;2022-08-19T15:36:34;26.00;98.20
56727;DHT22;42609;52.700;6.236;2022-08-19T15:39:01;26.00;98.20
56727;DHT22;42609;52.700;6.236;2022-08-19T15:41:29;25.90;98.30
56727;DHT22;42609;52.700;6.236;2022-08-19T15:44:00;25.90;98.60